Time;durP1;ratioP1;P1;durP2;ratioP2;P2;SDS_P1;SDS_P2;PMS_P1;PMS_P2;Temp;Humidity;BMP_temperature;BMP_pressure;BME280_temperature;BME280_humidity;BME280_pressure;Samples;Min_cycle;Max_cycle;Signal;HPM_P1;HPM_P2
2022/06/01 00:01:52;;;;;;;12.90;4.43;;;;;;;;;;5075475;28;20035;-77
2022/06/01 00:04:18;;;;;;;16.92;4.15;;;;;;;;;;5078500;28;20095;-79
2022/06/01 00:06:44;;;;;;;8.30;3.95;;;;;;;;;;5071778;28;20032;-78
2022/06/01 00:09:11;;;;;;;21.00;4.47;;;;;;;;;;5074419;28;20039;-78
2022/06/01 00:11:37;;;;;;;17.65;4.60;;;;;;;;;;5076377;28;20070;-78
2022/06/01 00:14:03;;;;;;;14.73;4.32;;;;;;;;;;5074574;28;20024;-78
2022/06/01 00:16:30;;;;;;;16.60;4.68;;;;;;;;;;5069046;28;20037;-78
2022/06/01 00:18:57;;;;;;;8.60;3.90;;;;;;;;;;5072514;28;20398;-78
2022/06/01 00:21:23;;;;;;;14.43;4.15;;;;;;;;;;5069289;28;20021;-78
2022/06/01 00:23:49;;;;;;;14.82;4.65;;;;;;;;;;5071091;28;20435;-78
2022/06/01 00:26:15;;;;;;;14.15;4.78;;;;;;;;;;5069043;28;20024;-78
2022/06/01 00:28:41;;;;;;;13.77;4.82;;;;;;;;;;5073696;28;20379;-77
2022/06/01 00:31:10;;;;;;;12.98;4.25;;;;;;;;;;5069812;28;20043;-78
2022/06/01 00:33:37;;;;;;;17.38;4.53;;;;;;;;;;5078057;28;20333;-78
2022/06/01 00:36:05;;;;;;;14.23;5.05;;;;;;;;;;5072311;28;20531;-78
2022/06/01 00:38:31;;;;;;;13.82;4.30;;;;;;;;;;5080175;28;20032;-78
2022/06/01 00:40:57;;;;;;;16.25;4.45;;;;;;;;;;5067692;28;20465;-79
2022/06/01 00:43:23;;;;;;;14.38;4.68;;;;;;;;;;5076123;28;20059;-78
2022/06/01 00:45:50;;;;;;;19.95;4.55;;;;;;;;;;5072061;28;20017;-77
2022/06/01 00:48:16;;;;;;;24.25;5.65;;;;;;;;;;5070878;28;20027;-78
2022/06/01 00:50:43;;;;;;;13.10;4.43;;;;;;;;;;5072710;28;20404;-78
2022/06/01 00:53:20;;;;;;;17.08;4.82;;;;;;;;;;5070870;28;20016;-78
2022/06/01 00:55:53;;;;;;;17.08;4.97;;;;;;;;;;5080837;28;20040;-78
2022/06/01 00:58:22;;;;;;;14.48;4.82;;;;;;;;;;5071258;28;20478;-78
2022/06/01 01:00:50;;;;;;;17.05;5.10;;;;;;;;;;5079011;28;20024;-78
2022/06/01 01:03:17;;;;;;;19.40;5.30;;;;;;;;;;5071700;28;20043;-78
2022/06/01 01:05:48;;;;;;;11.25;4.65;;;;;;;;;;5079607;28;20027;-77
2022/06/01 01:08:14;;;;;;;15.43;5.40;;;;;;;;;;5081621;28;20020;-78
2022/06/01 01:10:40;;;;;;;16.08;5.90;;;;;;;;;;5077147;28;20031;-78
2022/06/01 01:13:08;;;;;;;19.90;6.07;;;;;;;;;;5077670;28;20550;-78
2022/06/01 01:15:40;;;;;;;16.20;5.95;;;;;;;;;;5079677;28;20089;-79
2022/06/01 01:18:11;;;;;;;15.77;6.40;;;;;;;;;;5080614;28;20026;-78
2022/06/01 01:20:43;;;;;;;24.33;8.45;;;;;;;;;;5086267;28;20456;-78
2022/06/01 01:23:16;;;;;;;16.75;6.43;;;;;;;;;;5078158;28;20016;-77
2022/06/01 01:25:43;;;;;;;18.85;6.65;;;;;;;;;;5075187;28;20051;-78
2022/06/01 01:28:09;;;;;;;20.20;6.88;;;;;;;;;;5076557;28;20020;-79
2022/06/01 01:30:38;;;;;;;18.00;6.65;;;;;;;;;;5081243;28;20035;-79
2022/06/01 01:33:09;;;;;;;16.25;7.05;;;;;;;;;;5077818;28;20047;-77
2022/06/01 01:35:35;;;;;;;16.63;5.88;;;;;;;;;;5078235;28;20197;-78
2022/06/01 01:38:06;;;;;;;17.67;5.85;;;;;;;;;;5074831;28;20154;-78
2022/06/01 01:40:32;;;;;;;12.13;5.47;;;;;;;;;;5076568;28;20433;-78
2022/06/01 01:43:00;;;;;;;18.98;5.40;;;;;;;;;;5071685;28;20100;-78
2022/06/01 01:45:26;;;;;;;18.60;5.75;;;;;;;;;;5077388;28;20065;-78
2022/06/01 01:47:52;;;;;;;22.50;6.78;;;;;;;;;;5074996;28;20028;-78
2022/06/01 01:50:19;;;;;;;14.88;5.03;;;;;;;;;;5078261;28;20025;-78
2022/06/01 01:52:45;;;;;;;15.48;5.22;;;;;;;;;;5082885;28;20355;-78
2022/06/01 01:55:20;;;;;;;16.83;5.20;;;;;;;;;;5078340;28;20036;-77
2022/06/01 01:57:59;;;;;;;15.23;5.38;;;;;;;;;;5074124;28;20025;-79
2022/06/01 02:00:31;;;;;;;9.70;4.70;;;;;;;;;;5073309;28;20031;-78
2022/06/01 02:02:57;;;;;;;16.73;5.63;;;;;;;;;;5076126;28;20044;-78
2022/06/01 02:08:47;;;;;;;13.93;5.30;;;;;;;;;;5081626;28;20438;-78
2022/06/01 02:14:16;;;;;;;14.38;5.10;;;;;;;;;;5071107;28;20124;-78
2022/06/01 02:16:48;;;;;;;19.70;5.18;;;;;;;;;;5077253;28;20036;-78
2022/06/01 02:19:16;;;;;;;12.02;5.32;;;;;;;;;;5073118;28;20031;-78
2022/06/01 02:21:42;;;;;;;11.07;5.10;;;;;;;;;;5077375;28;20051;-78
2022/06/01 02:24:08;;;;;;;10.77;4.40;;;;;;;;;;5071481;28;20091;-78
2022/06/01 02:26:35;;;;;;;14.30;5.13;;;;;;;;;;5080446;28;20021;-78
2022/06/01 02:29:06;;;;;;;16.85;4.90;;;;;;;;;;5076805;28;20027;-78
2022/06/01 02:31:34;;;;;;;13.05;5.57;;;;;;;;;;5079694;28;20115;-78
2022/06/01 02:34:00;;;;;;;17.95;4.43;;;;;;;;;;5078947;28;20024;-77
2022/06/01 02:36:27;;;;;;;17.42;5.00;;;;;;;;;;5076121;28;20032;-78
2022/06/01 02:38:54;;;;;;;14.70;5.85;;;;;;;;;;5073250;28;20040;-77
2022/06/01 02:44:05;;;;;;;12.93;4.57;;;;;;;;;;5073684;28;20447;-79
2022/06/01 02:46:32;;;;;;;10.82;4.88;;;;;;;;;;5074521;28;20037;-78
2022/06/01 02:48:58;;;;;;;16.08;5.07;;;;;;;;;;5077852;28;20016;-78
2022/06/01 02:51:24;;;;;;;18.23;5.22;;;;;;;;;;5079994;28;20024;-78
2022/06/01 02:53:50;;;;;;;18.00;5.80;;;;;;;;;;5071379;28;20029;-77
2022/06/01 02:56:17;;;;;;;11.32;4.78;;;;;;;;;;5077191;28;20468;-78
2022/06/01 02:58:43;;;;;;;15.55;5.13;;;;;;;;;;5076273;28;20069;-78
2022/06/01 03:01:09;;;;;;;14.02;4.45;;;;;;;;;;5075832;28;20017;-78
2022/06/01 03:03:36;;;;;;;17.50;5.53;;;;;;;;;;5075823;28;20044;-78
2022/06/01 03:06:03;;;;;;;11.07;4.53;;;;;;;;;;5075647;28;20019;-78
2022/06/01 03:08:29;;;;;;;12.93;4.55;;;;;;;;;;5074525;28;20036;-78
2022/06/01 03:10:55;;;;;;;12.32;4.53;;;;;;;;;;5082256;28;20048;-78
2022/06/01 03:13:22;;;;;;;13.35;4.82;;;;;;;;;;5077590;28;20094;-77
2022/06/01 03:15:49;;;;;;;12.65;4.22;;;;;;;;;;5078251;28;20032;-79
2022/06/01 03:18:15;;;;;;;15.50;3.90;;;;;;;;;;5071543;28;20073;-78
2022/06/01 03:20:42;;;;;;;17.45;4.47;;;;;;;;;;5081152;28;20538;-78
2022/06/01 03:23:08;;;;;;;15.25;5.13;;;;;;;;;;5070088;28;20093;-78
2022/06/01 03:25:37;;;;;;;10.45;3.72;;;;;;;;;;5084914;28;20055;-78
2022/06/01 03:28:03;;;;;;;19.13;4.60;;;;;;;;;;5080851;28;20027;-78
2022/06/01 03:30:30;;;;;;;13.70;3.75;;;;;;;;;;5083316;28;20028;-78
2022/06/01 03:32:57;;;;;;;12.20;4.93;;;;;;;;;;5085079;28;20016;-78
2022/06/01 03:35:24;;;;;;;9.35;3.70;;;;;;;;;;5084624;28;20032;-77
2022/06/01 03:37:51;;;;;;;16.48;4.32;;;;;;;;;;5086027;28;20074;-78
2022/06/01 03:40:19;;;;;;;12.23;4.20;;;;;;;;;;5084571;28;20020;-78
2022/06/01 03:42:45;;;;;;;13.48;4.40;;;;;;;;;;5078105;28;20495;-78
2022/06/01 03:47:56;;;;;;;17.40;5.25;;;;;;;;;;5083439;28;20043;-77
2022/06/01 03:50:24;;;;;;;9.15;3.88;;;;;;;;;;5084652;28;20509;-78
2022/06/01 03:52:50;;;;;;;11.45;4.10;;;;;;;;;;5082809;28;20596;-77
2022/06/01 03:55:16;;;;;;;12.98;4.15;;;;;;;;;;5082716;28;20020;-78
2022/06/01 03:57:43;;;;;;;10.52;4.00;;;;;;;;;;5077749;28;20032;-77
2022/06/01 04:00:11;;;;;;;15.93;5.00;;;;;;;;;;5066165;28;20451;-77
2022/06/01 04:02:38;;;;;;;15.00;5.18;;;;;;;;;;5057789;28;20050;-77
2022/06/01 04:05:04;;;;;;;23.50;5.72;;;;;;;;;;5059808;28;20021;-78
2022/06/01 04:07:30;;;;;;;11.57;4.57;;;;;;;;;;5069742;28;20293;-77
2022/06/01 04:09:56;;;;;;;13.07;5.22;;;;;;;;;;5052425;28;20020;-77
2022/06/01 04:12:29;;;;;;;12.50;5.32;;;;;;;;;;5065638;28;20169;-78
2022/06/01 04:14:55;;;;;;;20.23;6.32;;;;;;;;;;5059725;28;20016;-78
2022/06/01 04:17:21;;;;;;;17.10;5.50;;;;;;;;;;5076701;28;20028;-77
2022/06/01 04:19:47;;;;;;;21.42;5.68;;;;;;;;;;5073079;28;20016;-78
2022/06/01 04:22:15;;;;;;;15.52;5.15;;;;;;;;;;5066008;28;20032;-78
2022/06/01 04:24:41;;;;;;;22.45;5.53;;;;;;;;;;5083156;28;20024;-77
2022/06/01 04:27:07;;;;;;;16.25;5.15;;;;;;;;;;5069900;28;20020;-77
2022/06/01 04:29:33;;;;;;;12.65;5.03;;;;;;;;;;5076944;28;20122;-78
2022/06/01 04:32:04;;;;;;;14.90;5.38;;;;;;;;;;5083953;28;20016;-78
2022/06/01 04:34:31;;;;;;;18.48;6.68;;;;;;;;;;5077791;28;20232;-77
2022/06/01 04:36:57;;;;;;;15.65;5.88;;;;;;;;;;5084294;28;20549;-77
2022/06/01 04:39:24;;;;;;;22.50;7.45;;;;;;;;;;5067479;28;20085;-77
2022/06/01 04:41:50;;;;;;;17.80;7.03;;;;;;;;;;5082764;28;20028;-77
2022/06/01 04:44:16;;;;;;;24.50;6.85;;;;;;;;;;5078889;28;20035;-78
2022/06/01 04:46:43;;;;;;;14.80;7.60;;;;;;;;;;5087648;28;20556;-78
2022/06/01 04:49:09;;;;;;;22.48;7.93;;;;;;;;;;5085223;28;20149;-77
2022/06/01 04:51:36;;;;;;;16.70;7.97;;;;;;;;;;5067272;28;20628;-78
2022/06/01 04:54:02;;;;;;;19.20;7.57;;;;;;;;;;5081007;28;20024;-77
2022/06/01 04:56:28;;;;;;;17.52;8.30;;;;;;;;;;5065900;28;20155;-78
2022/06/01 04:58:54;;;;;;;15.52;7.13;;;;;;;;;;5080511;28;20020;-78
2022/06/01 05:01:20;;;;;;;13.85;5.45;;;;;;;;;;5074655;28;20169;-77
2022/06/01 05:03:47;;;;;;;14.68;5.47;;;;;;;;;;5079656;28;21248;-79
2022/06/01 05:06:13;;;;;;;12.88;4.32;;;;;;;;;;5073452;28;20093;-78
2022/06/01 05:08:39;;;;;;;11.38;4.68;;;;;;;;;;5071398;28;20074;-78
2022/06/01 05:11:05;;;;;;;14.63;4.68;;;;;;;;;;5080932;28;20024;-78
2022/06/01 05:13:31;;;;;;;17.02;5.43;;;;;;;;;;5072696;28;20303;-77
2022/06/01 05:15:59;;;;;;;15.45;5.75;;;;;;;;;;5043954;28;20797;-79
2022/06/01 05:18:26;;;;;;;16.23;5.60;;;;;;;;;;5071412;28;20035;-77
2022/06/01 05:20:55;;;;;;;13.98;5.32;;;;;;;;;;5074631;28;20028;-77
2022/06/01 05:23:22;;;;;;;16.83;5.75;;;;;;;;;;5080920;28;20111;-77
2022/06/01 05:25:50;;;;;;;11.93;4.40;;;;;;;;;;5074960;28;20036;-78
2022/06/01 05:28:18;;;;;;;13.13;4.18;;;;;;;;;;5069205;28;20024;-78
2022/06/01 05:30:44;;;;;;;12.23;4.65;;;;;;;;;;5070569;28;20212;-78
2022/06/01 05:33:10;;;;;;;10.65;4.35;;;;;;;;;;5051749;28;20435;-79
2022/06/01 05:35:36;;;;;;;15.55;4.22;;;;;;;;;;5082732;28;20032;-78
2022/06/01 05:38:02;;;;;;;10.60;4.18;;;;;;;;;;5086695;28;20020;-78
2022/06/01 05:40:30;;;;;;;19.45;4.90;;;;;;;;;;5080061;28;20031;-78
2022/06/01 05:42:57;;;;;;;10.65;4.60;;;;;;;;;;5084514;28;20308;-78
2022/06/01 05:45:24;;;;;;;16.63;5.90;;;;;;;;;;5086280;28;20091;-78
2022/06/01 05:47:50;;;;;;;15.23;4.50;;;;;;;;;;5075088;28;20020;-77
2022/06/01 05:50:16;;;;;;;20.63;4.80;;;;;;;;;;5085595;28;20384;-78
2022/06/01 05:52:42;;;;;;;17.25;4.45;;;;;;;;;;5086031;28;20028;-78
2022/06/01 05:55:09;;;;;;;12.05;4.55;;;;;;;;;;5084747;28;20030;-78
2022/06/01 05:57:35;;;;;;;15.80;5.03;;;;;;;;;;5089057;28;20032;-78
2022/06/01 06:00:04;;;;;;;13.98;4.95;;;;;;;;;;5086519;28;20031;-78
2022/06/01 06:02:30;;;;;;;15.40;4.55;;;;;;;;;;5072616;28;20083;-78
2022/06/01 06:08:00;;;;;;;12.20;4.75;;;;;;;;;;5079854;28;20039;-78
2022/06/01 06:10:28;;;;;;;12.35;5.00;;;;;;;;;;5079228;28;20392;-78
2022/06/01 06:12:54;;;;;;;16.33;5.38;;;;;;;;;;5069612;28;20384;-78
2022/06/01 06:15:21;;;;;;;19.60;6.32;;;;;;;;;;5042511;28;20012;-78
2022/06/01 06:17:47;;;;;;;20.02;5.88;;;;;;;;;;5052311;28;20036;-78
2022/06/01 06:20:17;;;;;;;14.77;5.97;;;;;;;;;;5061567;28;20024;-78
2022/06/01 06:22:43;;;;;;;14.80;6.07;;;;;;;;;;5064422;28;20078;-78
2022/06/01 06:25:09;;;;;;;13.68;5.97;;;;;;;;;;5069522;28;20024;-77
2022/06/01 06:27:35;;;;;;;13.52;5.72;;;;;;;;;;5063958;28;20062;-78
2022/06/01 06:30:01;;;;;;;14.32;6.57;;;;;;;;;;5063810;28;20103;-78
2022/06/01 06:32:28;;;;;;;21.42;6.80;;;;;;;;;;5060059;28;20480;-78
2022/06/01 06:34:54;;;;;;;15.57;7.07;;;;;;;;;;5062440;28;20443;-78
2022/06/01 06:37:21;;;;;;;21.05;7.40;;;;;;;;;;5069888;28;20032;-78
2022/06/01 06:39:47;;;;;;;14.68;6.50;;;;;;;;;;5068832;28;20028;-79
2022/06/01 06:42:13;;;;;;;17.02;6.13;;;;;;;;;;5063879;28;20566;-77
2022/06/01 06:44:39;;;;;;;12.77;6.38;;;;;;;;;;5064909;28;20082;-79
2022/06/01 06:47:05;;;;;;;12.68;6.55;;;;;;;;;;5065188;28;20027;-77
2022/06/01 06:49:32;;;;;;;19.65;5.82;;;;;;;;;;5063764;28;20056;-78
2022/06/01 06:51:58;;;;;;;17.63;6.55;;;;;;;;;;5066266;28;20016;-78
2022/06/01 06:54:27;;;;;;;12.27;5.90;;;;;;;;;;5065318;28;20025;-78
2022/06/01 06:56:53;;;;;;;16.75;6.55;;;;;;;;;;5059854;28;20072;-78
2022/06/01 06:59:19;;;;;;;17.23;7.82;;;;;;;;;;5064274;28;20033;-78
2022/06/01 07:01:45;;;;;;;20.33;7.93;;;;;;;;;;5070871;28;20273;-79
2022/06/01 07:04:11;;;;;;;15.77;7.25;;;;;;;;;;5070911;28;20477;-77
2022/06/01 07:06:37;;;;;;;16.77;6.95;;;;;;;;;;5073288;28;20085;-79
2022/06/01 07:09:03;;;;;;;18.35;6.95;;;;;;;;;;5081861;28;20024;-78
2022/06/01 07:11:31;;;;;;;17.08;6.95;;;;;;;;;;5080453;28;20028;-78
2022/06/01 07:13:58;;;;;;;16.55;6.13;;;;;;;;;;5074840;28;20028;-78
2022/06/01 07:16:26;;;;;;;18.10;6.90;;;;;;;;;;5084880;28;20073;-79
2022/06/01 07:18:53;;;;;;;13.57;6.28;;;;;;;;;;5083425;28;20300;-78
2022/06/01 07:21:20;;;;;;;20.77;6.10;;;;;;;;;;5070493;28;20020;-78
2022/06/01 07:23:46;;;;;;;14.40;6.43;;;;;;;;;;5070565;28;20059;-78
2022/06/01 07:26:14;;;;;;;15.20;5.90;;;;;;;;;;5067817;28;20069;-77
2022/06/01 07:28:40;;;;;;;14.80;6.22;;;;;;;;;;5077195;28;20019;-78
2022/06/01 07:31:07;;;;;;;17.77;5.50;;;;;;;;;;5068128;28;20025;-78
2022/06/01 07:33:34;;;;;;;11.95;5.18;;;;;;;;;;5063703;28;20024;-79
2022/06/01 07:36:01;;;;;;;13.40;5.03;;;;;;;;;;5064180;28;20056;-78
2022/06/01 07:44:09;;;;;;;13.70;5.07;;;;;;;;;;5063957;28;20028;-78
2022/06/01 07:46:36;;;;;;;11.73;4.93;;;;;;;;;;5062161;28;20024;-78
2022/06/01 07:49:02;;;;;;;11.40;5.07;;;;;;;;;;5063039;28;20037;-78
2022/06/01 07:51:28;;;;;;;23.20;5.55;;;;;;;;;;5063194;28;20078;-78
2022/06/01 07:53:55;;;;;;;10.40;4.53;;;;;;;;;;5067040;28;20468;-79
2022/06/01 07:56:21;;;;;;;18.80;4.88;;;;;;;;;;5069905;28;20028;-79
2022/06/01 07:58:47;;;;;;;17.98;5.47;;;;;;;;;;5068114;28;20028;-79
2022/06/01 08:01:14;;;;;;;12.80;5.85;;;;;;;;;;5065831;28;20047;-78
2022/06/01 08:03:40;;;;;;;12.88;5.43;;;;;;;;;;5063122;28;20047;-78
2022/06/01 08:06:06;;;;;;;15.50;5.88;;;;;;;;;;5066816;28;20675;-79
2022/06/01 08:08:32;;;;;;;15.75;6.50;;;;;;;;;;5067948;28;20036;-79
2022/06/01 08:11:01;;;;;;;15.07;6.53;;;;;;;;;;5063128;28;20016;-79
2022/06/01 08:13:27;;;;;;;11.65;5.85;;;;;;;;;;5067723;28;20028;-79
2022/06/01 08:15:56;;;;;;;21.33;6.72;;;;;;;;;;5063022;28;20495;-78
2022/06/01 08:18:24;;;;;;;19.60;6.53;;;;;;;;;;5063287;28;20498;-78
2022/06/01 08:20:51;;;;;;;16.70;5.88;;;;;;;;;;5064476;28;20865;-79
2022/06/01 08:23:17;;;;;;;17.75;6.15;;;;;;;;;;5065548;28;20020;-79
2022/06/01 08:25:45;;;;;;;11.82;5.90;;;;;;;;;;5063999;28;20487;-78
2022/06/01 08:28:11;;;;;;;17.60;6.05;;;;;;;;;;5068817;28;20599;-79
2022/06/01 08:30:38;;;;;;;16.52;6.35;;;;;;;;;;5061547;28;20023;-78
2022/06/01 08:33:05;;;;;;;20.92;7.10;;;;;;;;;;5063551;28;20035;-78
2022/06/01 08:35:36;;;;;;;13.52;6.80;;;;;;;;;;5063672;28;20505;-79
2022/06/01 08:38:02;;;;;;;22.23;7.40;;;;;;;;;;5061720;28;20032;-78
2022/06/01 08:40:30;;;;;;;18.98;6.60;;;;;;;;;;5064152;28;20035;-78
2022/06/01 08:43:02;;;;;;;19.13;6.85;;;;;;;;;;5064482;28;20103;-78
2022/06/01 08:45:28;;;;;;;;;;;;;;;;;;5064499;28;20302;-80
2022/06/01 08:47:54;;;;;;;16.52;6.10;;;;;;;;;;5064509;28;19944;-79
2022/06/01 08:50:20;;;;;;;18.77;7.20;;;;;;;;;;5066714;28;20031;-78
2022/06/01 08:52:46;;;;;;;22.23;7.05;;;;;;;;;;5071641;28;20137;-79
2022/06/01 08:55:13;;;;;;;20.45;8.00;;;;;;;;;;5064562;28;20021;-79
2022/06/01 08:57:46;;;;;;;14.00;6.50;;;;;;;;;;5072418;28;20061;-78
2022/06/01 09:00:15;;;;;;;16.42;6.57;;;;;;;;;;5067804;28;20040;-79
2022/06/01 09:03:00;;;;;;;19.23;7.07;;;;;;;;;;5072739;28;20489;-78
2022/06/01 09:05:32;;;;;;;18.65;7.03;;;;;;;;;;5067454;28;20028;-79
2022/06/01 09:08:27;;;;;;;17.70;6.45;;;;;;;;;;5068853;28;20024;-78
2022/06/01 09:11:03;;;;;;;15.65;6.72;;;;;;;;;;5047898;28;20224;-79
2022/06/01 09:13:35;;;;;;;22.23;8.00;;;;;;;;;;5066398;28;20035;-79
2022/06/01 09:16:03;;;;;;;17.20;7.47;;;;;;;;;;5065660;28;20119;-79
2022/06/01 09:18:30;;;;;;;15.70;7.40;;;;;;;;;;5060335;28;20024;-79
2022/06/01 09:23:42;;;;;;;21.27;8.30;;;;;;;;;;5076571;28;20113;-78
2022/06/01 09:26:08;;;;;;;24.02;8.43;;;;;;;;;;5075006;28;20055;-78
2022/06/01 09:28:43;;;;;;;15.30;7.22;;;;;;;;;;5080810;28;20024;-78
2022/06/01 09:31:21;;;;;;;16.48;6.30;;;;;;;;;;5077785;28;20107;-79
2022/06/01 09:33:47;;;;;;;17.20;7.20;;;;;;;;;;5076994;28;20114;-77
2022/06/01 09:36:22;;;;;;;17.98;8.15;;;;;;;;;;5075846;28;20467;-78
2022/06/01 09:38:51;;;;;;;15.93;6.53;;;;;;;;;;5074025;28;20519;-78
2022/06/01 09:41:21;;;;;;;22.30;8.45;;;;;;;;;;5078614;28;20043;-79
2022/06/01 09:43:50;;;;;;;15.68;7.43;;;;;;;;;;5073178;28;20027;-77
2022/06/01 09:46:36;;;;;;;22.52;7.18;;;;;;;;;;5070808;28;20029;-78
2022/06/01 09:49:11;;;;;;;13.45;6.30;;;;;;;;;;5069031;28;20025;-78
2022/06/01 09:51:41;;;;;;;17.33;5.55;;;;;;;;;;5076286;28;20039;-79
2022/06/01 09:54:10;;;;;;;15.80;5.72;;;;;;;;;;5081622;28;20155;-79
2022/06/01 09:56:41;;;;;;;17.48;6.13;;;;;;;;;;5065368;28;20034;-79
2022/06/01 10:07:24;;;;;;;17.10;5.43;;;;;;;;;;5066207;28;20119;-78
2022/06/01 10:09:51;;;;;;;14.07;4.93;;;;;;;;;;5060701;28;20035;-78
2022/06/01 10:12:36;;;;;;;14.05;5.10;;;;;;;;;;5073536;28;20040;-78
2022/06/01 10:15:04;;;;;;;11.90;4.68;;;;;;;;;;5063983;28;20028;-78
2022/06/01 10:17:35;;;;;;;13.48;5.10;;;;;;;;;;5061641;28;20036;-78
2022/06/01 10:20:07;;;;;;;14.17;5.33;;;;;;;;;;5067974;28;20024;-78
2022/06/01 10:22:51;;;;;;;10.35;4.88;;;;;;;;;;5056435;28;20249;-78
2022/06/01 10:25:38;;;;;;;15.95;5.18;;;;;;;;;;5066202;28;20024;-78
2022/06/01 10:28:06;;;;;;;12.07;5.35;;;;;;;;;;5065425;28;20024;-78
2022/06/01 10:30:36;;;;;;;11.32;4.65;;;;;;;;;;5063945;28;20033;-78
2022/06/01 10:33:17;;;;;;;22.23;6.32;;;;;;;;;;5061033;28;20083;-77
2022/06/01 10:35:43;;;;;;;;;;;;;;;;;;5063270;28;20040;-78
2022/06/01 10:38:17;;;;;;;16.67;5.15;;;;;;;;;;5063323;28;19911;-78
2022/06/01 10:40:43;;;;;;;13.73;5.07;;;;;;;;;;5063701;28;20028;-78
2022/06/01 10:43:16;;;;;;;14.38;5.50;;;;;;;;;;5063574;28;20457;-78
2022/06/01 10:45:47;;;;;;;14.85;5.25;;;;;;;;;;5062117;28;20037;-78
2022/06/01 10:48:33;;;;;;;12.00;4.57;;;;;;;;;;5063462;28;20052;-78
2022/06/01 10:51:05;;;;;;;13.00;5.47;;;;;;;;;;5061011;28;20032;-78
2022/06/01 10:53:35;;;;;;;12.52;5.38;;;;;;;;;;5059696;28;20027;-78
2022/06/01 10:56:01;;;;;;;10.43;5.07;;;;;;;;;;5065378;28;20441;-78
2022/06/01 10:58:29;;;;;;;17.65;5.13;;;;;;;;;;5064748;28;20031;-79
2022/06/01 11:00:55;;;;;;;12.18;5.57;;;;;;;;;;5065008;28;20017;-78
2022/06/01 11:03:27;;;;;;;17.00;5.72;;;;;;;;;;5055942;28;20041;-79
2022/06/01 11:06:11;;;;;;;19.17;5.57;;;;;;;;;;5066764;28;20488;-78
2022/06/01 11:08:45;;;;;;;10.95;4.65;;;;;;;;;;5085104;28;20095;-78
2022/06/01 11:11:24;;;;;;;16.42;5.68;;;;;;;;;;5078166;28;20036;-78
2022/06/01 11:13:58;;;;;;;8.40;4.80;;;;;;;;;;5082863;28;20034;-78
2022/06/01 11:16:37;;;;;;;15.63;5.60;;;;;;;;;;5085087;28;20391;-78
2022/06/01 11:19:15;;;;;;;12.63;5.13;;;;;;;;;;5083959;28;20493;-78
2022/06/01 11:21:54;;;;;;;14.60;5.65;;;;;;;;;;5067393;28;20024;-78
2022/06/01 11:24:37;;;;;;;15.27;5.57;;;;;;;;;;5083013;28;20024;-78
2022/06/01 11:27:04;;;;;;;22.65;5.85;;;;;;;;;;5073846;28;20456;-77
2022/06/01 11:29:48;;;;;;;14.25;5.80;;;;;;;;;;5084453;28;20024;-78
2022/06/01 11:32:19;;;;;;;15.00;5.47;;;;;;;;;;5084722;28;20028;-79
2022/06/01 11:34:45;;;;;;;12.65;4.97;;;;;;;;;;5081860;28;20103;-78
2022/06/01 11:37:14;;;;;;;16.42;5.88;;;;;;;;;;5083326;28;20028;-78
2022/06/01 11:39:43;;;;;;;15.80;5.55;;;;;;;;;;5084379;28;20020;-77
2022/06/01 11:42:18;;;;;;;17.38;5.38;;;;;;;;;;5075931;28;20028;-77
2022/06/01 11:44:52;;;;;;;17.48;5.70;;;;;;;;;;5083904;28;20077;-78
2022/06/01 11:47:20;;;;;;;12.77;5.18;;;;;;;;;;5081116;28;20240;-79
2022/06/01 11:50:17;;;;;;;18.70;5.55;;;;;;;;;;5084727;28;20032;-78
2022/06/01 11:52:43;;;;;;;14.35;5.40;;;;;;;;;;5072398;28;20051;-78
2022/06/01 11:55:12;;;;;;;17.77;5.38;;;;;;;;;;5084839;28;20526;-78
2022/06/01 11:57:45;;;;;;;13.52;4.93;;;;;;;;;;5084589;28;20036;-78
2022/06/01 12:00:20;;;;;;;14.30;4.95;;;;;;;;;;5082775;28;20108;-78
2022/06/01 12:02:50;;;;;;;10.15;4.53;;;;;;;;;;5084360;28;20048;-78
2022/06/01 12:05:19;;;;;;;15.55;5.13;;;;;;;;;;5073180;28;20088;-78
2022/06/01 12:07:54;;;;;;;10.38;4.65;;;;;;;;;;5081308;28;20464;-78
2022/06/01 12:10:25;;;;;;;11.57;4.32;;;;;;;;;;5082904;28;20119;-78
2022/06/01 12:13:03;;;;;;;10.88;4.63;;;;;;;;;;5079567;28;20035;-77
2022/06/01 12:15:42;;;;;;;11.48;4.57;;;;;;;;;;5084120;28;20034;-78
2022/06/01 12:18:14;;;;;;;13.18;4.47;;;;;;;;;;5084813;28;20500;-78
2022/06/01 12:20:40;;;;;;;14.95;5.43;;;;;;;;;;5083288;28;20027;-78
2022/06/01 12:28:48;;;;;;;12.68;4.50;;;;;;;;;;5072020;28;20490;-78
2022/06/01 12:31:18;;;;;;;20.95;4.90;;;;;;;;;;5082067;28;20016;-78
2022/06/01 12:34:03;;;;;;;14.70;4.35;;;;;;;;;;5081988;28;20016;-78
2022/06/01 12:36:35;;;;;;;13.15;4.72;;;;;;;;;;5083738;28;20483;-78
2022/06/01 12:39:05;;;;;;;14.77;4.40;;;;;;;;;;5084303;28;20504;-78
2022/06/01 12:41:34;;;;;;;15.60;4.85;;;;;;;;;;5083828;28;20074;-78
2022/06/01 12:44:04;;;;;;;10.27;3.58;;;;;;;;;;5081925;28;20048;-77
2022/06/01 12:46:41;;;;;;;14.07;4.13;;;;;;;;;;5077915;28;20219;-78
2022/06/01 12:49:23;;;;;;;14.23;3.95;;;;;;;;;;5082007;28;20483;-78
2022/06/01 12:52:01;;;;;;;12.43;4.50;;;;;;;;;;5083912;28;20392;-78
2022/06/01 12:54:33;;;;;;;10.32;4.05;;;;;;;;;;5083844;28;20024;-78
2022/06/01 12:57:00;;;;;;;15.05;4.25;;;;;;;;;;5087253;28;20032;-78
2022/06/01 12:59:29;;;;;;;11.23;4.82;;;;;;;;;;5088080;28;20095;-78
2022/06/01 13:02:00;;;;;;;13.45;4.07;;;;;;;;;;5086262;28;20028;-78
2022/06/01 13:04:27;;;;;;;14.23;4.60;;;;;;;;;;5083063;28;20485;-78
2022/06/01 13:06:53;;;;;;;15.18;4.43;;;;;;;;;;5077668;28;20031;-77
2022/06/01 13:09:21;;;;;;;14.10;4.82;;;;;;;;;;5083952;28;20023;-77
2022/06/01 13:12:07;;;;;;;14.73;4.50;;;;;;;;;;5088068;28;20274;-78
2022/06/01 13:14:34;;;;;;;11.35;4.03;;;;;;;;;;5087306;28;20426;-78
2022/06/01 13:17:02;;;;;;;10.95;4.25;;;;;;;;;;5087524;28;20036;-77
2022/06/01 13:19:30;;;;;;;13.32;4.45;;;;;;;;;;5085909;28;20020;-78
2022/06/01 13:22:00;;;;;;;12.00;4.50;;;;;;;;;;5087351;28;20031;-78
2022/06/01 13:24:28;;;;;;;16.48;4.60;;;;;;;;;;5087159;28;20048;-77
2022/06/01 13:26:54;;;;;;;16.35;4.90;;;;;;;;;;5084336;28;20030;-78
2022/06/01 13:29:22;;;;;;;9.98;3.88;;;;;;;;;;5087984;28;20101;-78
2022/06/01 13:31:53;;;;;;;14.35;4.55;;;;;;;;;;5088005;28;20012;-78
2022/06/01 13:34:32;;;;;;;13.98;4.28;;;;;;;;;;5087437;28;20032;-77
2022/06/01 13:37:25;;;;;;;14.35;3.95;;;;;;;;;;5087492;28;20044;-78
2022/06/01 13:40:09;;;;;;;19.10;5.03;;;;;;;;;;5083504;28;20063;-78
2022/06/01 13:42:52;;;;;;;15.68;4.43;;;;;;;;;;5084220;28;20036;-78
2022/06/01 13:45:23;;;;;;;13.50;4.35;;;;;;;;;;5063177;28;20016;-78
2022/06/01 13:47:49;;;;;;;12.27;4.28;;;;;;;;;;5088868;28;20039;-78
2022/06/01 13:50:15;;;;;;;9.38;3.97;;;;;;;;;;5086827;28;20027;-78
2022/06/01 13:52:48;;;;;;;14.20;4.38;;;;;;;;;;5085396;28;20024;-78
2022/06/01 13:55:31;;;;;;;16.38;5.15;;;;;;;;;;5087024;28;20032;-78
2022/06/01 13:58:18;;;;;;;12.60;4.78;;;;;;;;;;5084572;28;20115;-79
2022/06/01 14:00:46;;;;;;;11.75;4.97;;;;;;;;;;5087203;28;20024;-78
2022/06/01 14:03:20;;;;;;;12.18;4.47;;;;;;;;;;5080007;28;20048;-78
2022/06/01 14:05:47;;;;;;;16.83;5.28;;;;;;;;;;5072289;28;20025;-78
2022/06/01 14:08:26;;;;;;;13.65;5.03;;;;;;;;;;5080443;28;20502;-78
2022/06/01 14:10:52;;;;;;;15.88;4.70;;;;;;;;;;5086439;28;20069;-78
2022/06/01 14:13:23;;;;;;;11.13;4.93;;;;;;;;;;5086357;28;20417;-79
2022/06/01 14:15:50;;;;;;;10.60;4.15;;;;;;;;;;5086475;28;20082;-78
2022/06/01 14:18:20;;;;;;;16.13;4.63;;;;;;;;;;5085237;28;20028;-78
2022/06/01 14:20:50;;;;;;;8.03;3.60;;;;;;;;;;5080566;28;20020;-78
2022/06/01 14:23:16;;;;;;;20.75;4.72;;;;;;;;;;5086410;28;20028;-79
2022/06/01 14:28:31;;;;;;;14.00;4.60;;;;;;;;;;5067884;28;20217;-78
2022/06/01 14:30:58;;;;;;;14.98;4.25;;;;;;;;;;5086037;28;20020;-78
2022/06/01 14:33:25;;;;;;;13.73;4.45;;;;;;;;;;5085892;28;20016;-78
2022/06/01 14:35:52;;;;;;;14.38;4.57;;;;;;;;;;5084409;28;20036;-78
2022/06/01 14:38:18;;;;;;;15.07;4.72;;;;;;;;;;5085682;28;20028;-78
2022/06/01 14:40:45;;;;;;;16.98;4.72;;;;;;;;;;5084531;28;20027;-78
2022/06/01 14:43:11;;;;;;;14.52;4.80;;;;;;;;;;5085742;28;20067;-78
2022/06/01 14:45:38;;;;;;;13.27;4.18;;;;;;;;;;5084944;28;20044;-79
2022/06/01 14:48:04;;;;;;;13.18;4.68;;;;;;;;;;5085789;28;20017;-78
2022/06/01 14:50:30;;;;;;;11.10;4.20;;;;;;;;;;5084583;28;20023;-79
2022/06/01 14:52:56;;;;;;;15.13;5.15;;;;;;;;;;5085941;28;20530;-78
2022/06/01 14:55:22;;;;;;;11.70;3.55;;;;;;;;;;5080158;28;20028;-78
2022/06/01 14:57:49;;;;;;;12.20;4.32;;;;;;;;;;5081053;28;20107;-78
2022/06/01 15:00:15;;;;;;;16.00;3.75;;;;;;;;;;5083927;28;20423;-78
2022/06/01 15:02:43;;;;;;;14.27;4.13;;;;;;;;;;5085659;28;20048;-79
2022/06/01 15:05:10;;;;;;;13.57;4.03;;;;;;;;;;5075713;28;20122;-78
2022/06/01 15:07:36;;;;;;;16.95;4.70;;;;;;;;;;5081585;28;20543;-78
2022/06/01 15:10:03;;;;;;;10.52;3.97;;;;;;;;;;5085463;28;20039;-79
2022/06/01 15:12:29;;;;;;;13.23;3.95;;;;;;;;;;5085391;28;20067;-79
2022/06/01 15:14:55;;;;;;;12.50;4.30;;;;;;;;;;5083639;28;20028;-79
2022/06/01 15:17:22;;;;;;;15.73;3.50;;;;;;;;;;5085736;28;20044;-78
2022/06/01 15:19:49;;;;;;;10.95;3.72;;;;;;;;;;5082881;28;20050;-78
2022/06/01 15:22:15;;;;;;;10.32;3.95;;;;;;;;;;5085174;28;20028;-78